Portada
METAR-TAF:

METAR-TAF

Aeroports :

Palma, Espanya

Aeroport de Palma - Son Sant Joan

latitud: 39-33N, longitud: 002-44E, altitud: 4 m

Observació

L'informe es va fer fa 36 minuts, a les 09:00 UTC
Vent 25 kt del Est/Nord-Est amb ràfegues de 36 kt
Temperatura 18°C
Humitat 64%
Pressió 1016 hPa
Visibilitat 10 km o més
Escasses núvols a una alçada de 3000 ft

METAR: LEPA 260900Z 06025G36KT 9999 FEW030 18/11 Q1016 NOSIG

Hora: 11:36 (09:36 UTC)

Pronòstic

L'informe es va fer fa 1 hora i 40 minuts, a les 07:56 UTC
Pronòstic vàlid del 26 a les 07 UTC al 27 a les 06 UTC
Vent 15 kt del Est/Nord-Est
Visibilitat 10 km o més
Escasses núvols a una alçada de 3000 ft
Temporalment
l' 26 a les 07 UTC al 26 a les 17 UTC
Vent 25 kt del Est/Nord-Est amb ràfegues de 42 kt
Evolucionant progressivament
l' 26 a les 20 UTC al 26 a les 22 UTC
Vent 4 kt amb direcció variable

TAF: LEPA 260756Z 2607/2706 06015KT 9999 FEW030 TX21/2612Z TN15/2706Z TEMPO 2607/2617 06025G42KT BECMG 2620/2622 VRB04KT

Observacions i pronòstics meteorològics de més de 4000 aeroports (METAR i TAF).

Les estacions disponibles són els punts grocs i vermells al mapa.

Posi el ratolí al punt desitjat per veure el nom de l'estació.

Feu clic per veure les observacions i els pronòstics meteorològics.

Per canviar el mapa: feu clic els botons verds amb una creu de color negre per apropar; al botó verd amb un guió per allunyar la imatge; o en les fletxes verdes per a mapes adjacents.


METAR-TAF: